sensor_id;sensor_type;location;lat;lon;timestamp;pressure;altitude;pressure_sealevel;temperature;humidity
21817;BME280;13247;47.504;7.382;2023-04-19T00:00:50;97671.25;;;7.19;100.00
21817;BME280;13247;47.504;7.382;2023-04-19T00:03:35;97675.56;;;7.22;100.00
21817;BME280;13247;47.504;7.382;2023-04-19T00:06:20;97666.03;;;7.18;100.00
21817;BME280;13247;47.504;7.382;2023-04-19T00:09:04;97676.75;;;6.93;100.00
21817;BME280;13247;47.504;7.382;2023-04-19T00:11:49;97674.31;;;6.78;100.00
21817;BME280;13247;47.504;7.382;2023-04-19T00:14:34;97677.78;;;6.82;100.00
21817;BME280;13247;47.504;7.382;2023-04-19T00:17:22;97666.44;;;6.84;100.00
21817;BME280;13247;47.504;7.382;2023-04-19T00:20:07;97663.81;;;6.87;100.00
21817;BME280;13247;47.504;7.382;2023-04-19T00:22:51;97670.75;;;6.87;100.00
21817;BME280;13247;47.504;7.382;2023-04-19T00:25:36;97661.09;;;6.96;100.00
21817;BME280;13247;47.504;7.382;2023-04-19T00:28:20;97663.78;;;6.90;100.00
21817;BME280;13247;47.504;7.382;2023-04-19T00:31:05;97662.69;;;6.29;100.00
21817;BME280;13247;47.504;7.382;2023-04-19T00:33:49;97663.69;;;6.13;100.00
21817;BME280;13247;47.504;7.382;2023-04-19T00:36:34;97666.41;;;6.01;100.00
21817;BME280;13247;47.504;7.382;2023-04-19T00:39:19;97663.72;;;6.11;100.00
21817;BME280;13247;47.504;7.382;2023-04-19T00:42:04;97665.38;;;6.17;100.00
21817;BME280;13247;47.504;7.382;2023-04-19T00:44:49;97668.06;;;6.11;100.00
21817;BME280;13247;47.504;7.382;2023-04-19T00:47:37;97665.50;;;6.08;100.00
21817;BME280;13247;47.504;7.382;2023-04-19T00:50:22;97664.41;;;6.30;100.00
21817;BME280;13247;47.504;7.382;2023-04-19T00:53:07;97666.09;;;6.34;100.00
21817;BME280;13247;47.504;7.382;2023-04-19T00:55:54;97660.78;;;6.46;100.00
21817;BME280;13247;47.504;7.382;2023-04-19T00:58:41;97652.22;;;6.32;100.00
21817;BME280;13247;47.504;7.382;2023-04-19T01:01:25;97647.84;;;6.37;100.00
21817;BME280;13247;47.504;7.382;2023-04-19T01:04:10;97653.75;;;6.54;100.00
21817;BME280;13247;47.504;7.382;2023-04-19T01:06:55;97652.16;;;6.41;100.00
21817;BME280;13247;47.504;7.382;2023-04-19T01:09:42;97646.03;;;6.45;100.00
21817;BME280;13247;47.504;7.382;2023-04-19T01:12:27;97646.84;;;6.49;100.00
21817;BME280;13247;47.504;7.382;2023-04-19T01:15:12;97645.94;;;6.53;100.00
21817;BME280;13247;47.504;7.382;2023-04-19T01:17:56;97645.00;;;6.63;100.00
21817;BME280;13247;47.504;7.382;2023-04-19T01:20:41;97649.41;;;6.53;100.00
21817;BME280;13247;47.504;7.382;2023-04-19T01:23:25;97645.88;;;6.60;100.00
21817;BME280;13247;47.504;7.382;2023-04-19T01:26:10;97650.25;;;6.58;100.00
21817;BME280;13247;47.504;7.382;2023-04-19T01:28:54;97645.03;;;6.55;100.00
21817;BME280;13247;47.504;7.382;2023-04-19T01:31:39;97642.44;;;6.57;100.00
21817;BME280;13247;47.504;7.382;2023-04-19T01:34:23;97646.72;;;6.62;100.00
21817;BME280;13247;47.504;7.382;2023-04-19T01:37:08;97651.38;;;6.31;100.00
21817;BME280;13247;47.504;7.382;2023-04-19T01:39:53;97651.50;;;6.18;100.00
21817;BME280;13247;47.504;7.382;2023-04-19T01:42:38;97640.44;;;5.95;100.00
21817;BME280;13247;47.504;7.382;2023-04-19T01:45:22;97642.91;;;6.10;100.00
21817;BME280;13247;47.504;7.382;2023-04-19T01:48:07;97643.66;;;6.22;100.00
21817;BME280;13247;47.504;7.382;2023-04-19T01:50:52;97638.22;;;6.45;100.00
21817;BME280;13247;47.504;7.382;2023-04-19T01:53:36;97641.41;;;6.71;100.00
21817;BME280;13247;47.504;7.382;2023-04-19T01:56:21;97633.50;;;6.76;100.00
21817;BME280;13247;47.504;7.382;2023-04-19T01:59:05;97633.28;;;6.95;100.00
21817;BME280;13247;47.504;7.382;2023-04-19T02:01:53;97631.84;;;6.70;100.00
21817;BME280;13247;47.504;7.382;2023-04-19T02:04:37;97636.31;;;6.62;100.00
21817;BME280;13247;47.504;7.382;2023-04-19T02:07:22;97631.69;;;6.85;100.00
21817;BME280;13247;47.504;7.382;2023-04-19T02:10:09;97633.53;;;6.74;100.00
21817;BME280;13247;47.504;7.382;2023-04-19T02:12:57;97621.09;;;6.97;100.00
21817;BME280;13247;47.504;7.382;2023-04-19T02:15:42;97625.84;;;7.32;100.00
21817;BME280;13247;47.504;7.382;2023-04-19T02:18:27;97627.19;;;6.98;100.00
21817;BME280;13247;47.504;7.382;2023-04-19T02:21:15;97634.19;;;6.94;100.00
21817;BME280;13247;47.504;7.382;2023-04-19T02:24:00;97628.94;;;6.96;100.00
21817;BME280;13247;47.504;7.382;2023-04-19T02:26:45;97636.00;;;6.88;100.00
21817;BME280;13247;47.504;7.382;2023-04-19T02:29:29;97626.00;;;7.22;100.00
21817;BME280;13247;47.504;7.382;2023-04-19T02:32:14;97617.47;;;7.07;100.00
21817;BME280;13247;47.504;7.382;2023-04-19T02:34:59;97630.34;;;7.21;100.00
21817;BME280;13247;47.504;7.382;2023-04-19T02:37:43;97619.66;;;7.39;100.00
21817;BME280;13247;47.504;7.382;2023-04-19T02:40:28;97604.66;;;7.55;100.00
21817;BME280;13247;47.504;7.382;2023-04-19T02:43:13;97599.50;;;7.52;100.00
21817;BME280;13247;47.504;7.382;2023-04-19T02:45:58;97604.72;;;7.52;100.00
21817;BME280;13247;47.504;7.382;2023-04-19T02:48:42;97603.59;;;7.65;100.00
21817;BME280;13247;47.504;7.382;2023-04-19T02:51:27;97603.44;;;7.77;100.00
21817;BME280;13247;47.504;7.382;2023-04-19T02:54:12;97602.75;;;7.66;100.00
21817;BME280;13247;47.504;7.382;2023-04-19T02:56:57;97600.91;;;7.71;100.00
21817;BME280;13247;47.504;7.382;2023-04-19T02:59:41;97590.56;;;7.66;100.00
21817;BME280;13247;47.504;7.382;2023-04-19T03:02:26;97601.19;;;7.53;100.00
21817;BME280;13247;47.504;7.382;2023-04-19T03:05:10;97610.91;;;7.43;100.00
21817;BME280;13247;47.504;7.382;2023-04-19T03:07:55;97600.69;;;7.28;100.00
21817;BME280;13247;47.504;7.382;2023-04-19T03:10:39;97616.66;;;7.04;100.00
21817;BME280;13247;47.504;7.382;2023-04-19T03:13:24;97606.72;;;7.32;100.00
21817;BME280;13247;47.504;7.382;2023-04-19T03:16:08;97596.84;;;7.53;100.00
21817;BME280;13247;47.504;7.382;2023-04-19T03:18:53;97604.50;;;7.64;100.00
21817;BME280;13247;47.504;7.382;2023-04-19T03:21:38;97604.28;;;7.77;100.00
21817;BME280;13247;47.504;7.382;2023-04-19T03:24:29;97606.25;;;7.63;100.00
21817;BME280;13247;47.504;7.382;2023-04-19T03:27:15;97599.16;;;7.73;100.00
21817;BME280;13247;47.504;7.382;2023-04-19T03:29:59;97605.09;;;7.79;100.00
21817;BME280;13247;47.504;7.382;2023-04-19T03:32:45;97605.72;;;7.95;100.00
21817;BME280;13247;47.504;7.382;2023-04-19T03:35:29;97605.63;;;8.01;100.00
21817;BME280;13247;47.504;7.382;2023-04-19T03:38:15;97605.06;;;7.82;100.00
21817;BME280;13247;47.504;7.382;2023-04-19T03:41:00;97605.09;;;7.81;100.00
21817;BME280;13247;47.504;7.382;2023-04-19T03:43:45;97604.41;;;7.70;100.00
21817;BME280;13247;47.504;7.382;2023-04-19T03:46:29;97600.47;;;7.98;100.00
21817;BME280;13247;47.504;7.382;2023-04-19T03:49:15;97603.13;;;7.95;100.00
21817;BME280;13247;47.504;7.382;2023-04-19T03:51:59;97597.69;;;8.07;100.00
21817;BME280;13247;47.504;7.382;2023-04-19T03:54:44;97593.13;;;8.18;100.00
21817;BME280;13247;47.504;7.382;2023-04-19T03:57:29;97590.69;;;8.09;100.00
21817;BME280;13247;47.504;7.382;2023-04-19T04:00:14;97592.34;;;8.13;100.00
21817;BME280;13247;47.504;7.382;2023-04-19T04:02:58;97589.69;;;8.16;100.00
21817;BME280;13247;47.504;7.382;2023-04-19T04:05:43;97586.72;;;8.37;100.00
21817;BME280;13247;47.504;7.382;2023-04-19T04:08:27;97589.53;;;8.27;100.00
21817;BME280;13247;47.504;7.382;2023-04-19T04:11:12;97590.28;;;8.33;100.00
21817;BME280;13247;47.504;7.382;2023-04-19T04:13:56;97588.91;;;8.13;100.00
21817;BME280;13247;47.504;7.382;2023-04-19T04:16:41;97589.56;;;8.25;100.00
21817;BME280;13247;47.504;7.382;2023-04-19T04:19:25;97584.59;;;8.10;100.00
21817;BME280;13247;47.504;7.382;2023-04-19T04:22:10;97588.06;;;8.09;100.00
21817;BME280;13247;47.504;7.382;2023-04-19T04:24:54;97588.81;;;8.16;100.00
21817;BME280;13247;47.504;7.382;2023-04-19T04:27:44;97597.91;;;7.95;100.00
21817;BME280;13247;47.504;7.382;2023-04-19T04:30:29;97595.72;;;8.20;100.00
21817;BME280;13247;47.504;7.382;2023-04-19T04:33:14;97590.03;;;7.97;100.00
21817;BME280;13247;47.504;7.382;2023-04-19T04:35:59;97599.81;;;7.85;100.00
21817;BME280;13247;47.504;7.382;2023-04-19T04:38:44;97595.06;;;8.09;100.00
21817;BME280;13247;47.504;7.382;2023-04-19T04:41:29;97593.00;;;8.27;100.00
21817;BME280;13247;47.504;7.382;2023-04-19T04:44:14;97601.44;;;8.41;100.00
21817;BME280;13247;47.504;7.382;2023-04-19T04:46:59;97600.94;;;8.20;100.00
21817;BME280;13247;47.504;7.382;2023-04-19T04:49:43;97602.72;;;8.19;100.00
21817;BME280;13247;47.504;7.382;2023-04-19T04:52:28;97603.66;;;8.14;100.00
21817;BME280;13247;47.504;7.382;2023-04-19T04:55:13;97611.47;;;8.17;100.00
21817;BME280;13247;47.504;7.382;2023-04-19T04:57:57;97606.38;;;8.08;100.00
21817;BME280;13247;47.504;7.382;2023-04-19T05:00:43;97607.84;;;7.72;100.00
21817;BME280;13247;47.504;7.382;2023-04-19T05:03:27;97610.81;;;8.04;100.00
21817;BME280;13247;47.504;7.382;2023-04-19T05:06:12;97602.78;;;8.15;100.00
21817;BME280;13247;47.504;7.382;2023-04-19T05:08:56;97606.25;;;8.15;100.00
21817;BME280;13247;47.504;7.382;2023-04-19T05:11:41;97604.00;;;7.94;100.00
21817;BME280;13247;47.504;7.382;2023-04-19T05:14:25;97609.19;;;7.97;100.00
21817;BME280;13247;47.504;7.382;2023-04-19T05:17:10;97605.78;;;7.92;100.00
21817;BME280;13247;47.504;7.382;2023-04-19T05:19:54;97604.59;;;8.10;100.00
21817;BME280;13247;47.504;7.382;2023-04-19T05:22:39;97607.25;;;8.08;100.00
21817;BME280;13247;47.504;7.382;2023-04-19T05:25:23;97610.97;;;7.95;100.00
21817;BME280;13247;47.504;7.382;2023-04-19T05:28:08;97611.75;;;8.00;100.00
21817;BME280;13247;47.504;7.382;2023-04-19T05:30:52;97619.00;;;7.83;100.00
21817;BME280;13247;47.504;7.382;2023-04-19T05:33:37;97620.22;;;8.14;100.00
21817;BME280;13247;47.504;7.382;2023-04-19T05:36:21;97611.22;;;8.30;100.00
21817;BME280;13247;47.504;7.382;2023-04-19T05:39:07;97616.84;;;8.08;100.00
21817;BME280;13247;47.504;7.382;2023-04-19T05:41:52;97614.78;;;8.26;100.00
21817;BME280;13247;47.504;7.382;2023-04-19T05:44:37;97615.03;;;8.11;100.00
21817;BME280;13247;47.504;7.382;2023-04-19T05:47:21;97614.03;;;8.18;100.00
21817;BME280;13247;47.504;7.382;2023-04-19T05:50:06;97615.81;;;8.16;100.00
21817;BME280;13247;47.504;7.382;2023-04-19T05:52:51;97619.06;;;8.32;100.00
21817;BME280;13247;47.504;7.382;2023-04-19T05:55:35;97620.00;;;8.28;100.00
21817;BME280;13247;47.504;7.382;2023-04-19T05:58:20;97615.69;;;8.25;100.00
21817;BME280;13247;47.504;7.382;2023-04-19T06:01:05;97619.22;;;8.21;100.00
21817;BME280;13247;47.504;7.382;2023-04-19T06:03:50;97626.31;;;8.13;100.00
21817;BME280;13247;47.504;7.382;2023-04-19T06:06:36;97621.75;;;8.24;100.00
21817;BME280;13247;47.504;7.382;2023-04-19T06:09:21;97628.59;;;8.33;100.00
21817;BME280;13247;47.504;7.382;2023-04-19T06:12:06;97625.97;;;8.34;100.00
21817;BME280;13247;47.504;7.382;2023-04-19T06:14:51;97623.16;;;8.45;100.00
21817;BME280;13247;47.504;7.382;2023-04-19T06:17:36;97623.84;;;8.54;100.00
21817;BME280;13247;47.504;7.382;2023-04-19T06:20:20;97618.34;;;8.69;100.00
21817;BME280;13247;47.504;7.382;2023-04-19T06:23:06;97620.88;;;8.73;100.00
21817;BME280;13247;47.504;7.382;2023-04-19T06:25:51;97628.59;;;8.79;100.00
21817;BME280;13247;47.504;7.382;2023-04-19T06:28:35;97625.97;;;8.79;100.00
21817;BME280;13247;47.504;7.382;2023-04-19T06:31:20;97623.31;;;8.82;100.00
21817;BME280;13247;47.504;7.382;2023-04-19T06:34:04;97628.31;;;8.94;100.00
21817;BME280;13247;47.504;7.382;2023-04-19T06:36:49;97628.16;;;9.00;100.00
21817;BME280;13247;47.504;7.382;2023-04-19T06:39:34;97627.66;;;9.24;100.00
21817;BME280;13247;47.504;7.382;2023-04-19T06:42:19;97630.97;;;9.32;100.00
21817;BME280;13247;47.504;7.382;2023-04-19T06:45:05;97628.56;;;9.23;100.00
21817;BME280;13247;47.504;7.382;2023-04-19T06:47:50;97628.81;;;9.52;100.00
21817;BME280;13247;47.504;7.382;2023-04-19T06:50:34;97624.88;;;9.31;100.00
21817;BME280;13247;47.504;7.382;2023-04-19T06:53:19;97622.16;;;9.36;100.00
21817;BME280;13247;47.504;7.382;2023-04-19T06:56:04;97621.47;;;9.66;100.00
21817;BME280;13247;47.504;7.382;2023-04-19T06:58:49;97614.16;;;9.80;100.00
21817;BME280;13247;47.504;7.382;2023-04-19T07:01:34;97617.31;;;9.94;100.00
21817;BME280;13247;47.504;7.382;2023-04-19T07:04:19;97616.59;;;9.88;100.00
21817;BME280;13247;47.504;7.382;2023-04-19T07:07:04;97626.91;;;9.59;100.00
21817;BME280;13247;47.504;7.382;2023-04-19T07:09:49;97611.44;;;9.85;100.00
21817;BME280;13247;47.504;7.382;2023-04-19T07:12:33;97609.97;;;9.73;100.00
21817;BME280;13247;47.504;7.382;2023-04-19T07:15:19;97615.88;;;9.81;100.00
21817;BME280;13247;47.504;7.382;2023-04-19T07:18:03;97608.09;;;9.78;100.00
21817;BME280;13247;47.504;7.382;2023-04-19T07:20:48;97616.34;;;9.98;100.00
21817;BME280;13247;47.504;7.382;2023-04-19T07:23:33;97608.22;;;10.07;100.00
21817;BME280;13247;47.504;7.382;2023-04-19T07:26:17;97613.47;;;10.07;100.00
21817;BME280;13247;47.504;7.382;2023-04-19T07:29:02;97607.34;;;10.08;100.00
21817;BME280;13247;47.504;7.382;2023-04-19T07:31:47;97613.06;;;10.25;100.00
21817;BME280;13247;47.504;7.382;2023-04-19T07:34:32;97605.78;;;10.37;100.00
21817;BME280;13247;47.504;7.382;2023-04-19T07:37:16;97606.28;;;10.51;100.00
21817;BME280;13247;47.504;7.382;2023-04-19T07:40:01;97602.59;;;10.88;100.00
21817;BME280;13247;47.504;7.382;2023-04-19T07:42:47;97609.00;;;10.78;100.00
21817;BME280;13247;47.504;7.382;2023-04-19T07:45:31;97603.31;;;10.63;100.00
21817;BME280;13247;47.504;7.382;2023-04-19T07:48:16;97609.94;;;10.76;100.00
21817;BME280;13247;47.504;7.382;2023-04-19T07:51:14;97607.78;;;10.90;100.00
21817;BME280;13247;47.504;7.382;2023-04-19T07:54:00;97605.84;;;10.98;100.00
21817;BME280;13247;47.504;7.382;2023-04-19T07:56:45;97604.84;;;11.02;100.00
21817;BME280;13247;47.504;7.382;2023-04-19T07:59:30;97601.22;;;11.06;100.00
21817;BME280;13247;47.504;7.382;2023-04-19T08:02:16;97601.44;;;10.98;100.00
21817;BME280;13247;47.504;7.382;2023-04-19T08:05:02;97597.84;;;11.01;100.00
21817;BME280;13247;47.504;7.382;2023-04-19T08:07:47;97592.59;;;11.30;100.00
21817;BME280;13247;47.504;7.382;2023-04-19T08:10:32;97597.22;;;11.22;100.00
21817;BME280;13247;47.504;7.382;2023-04-19T08:13:17;97591.16;;;11.20;100.00
21817;BME280;13247;47.504;7.382;2023-04-19T08:16:02;97587.56;;;11.52;100.00
21817;BME280;13247;47.504;7.382;2023-04-19T08:18:47;97588.13;;;11.89;100.00
21817;BME280;13247;47.504;7.382;2023-04-19T08:21:34;97571.88;;;12.04;100.00
21817;BME280;13247;47.504;7.382;2023-04-19T08:24:23;97567.28;;;12.11;100.00
21817;BME280;13247;47.504;7.382;2023-04-19T08:27:09;97576.28;;;11.77;100.00
21817;BME280;13247;47.504;7.382;2023-04-19T08:29:54;97580.91;;;11.96;100.00
21817;BME280;13247;47.504;7.382;2023-04-19T08:32:38;97571.88;;;12.04;100.00
21817;BME280;13247;47.504;7.382;2023-04-19T08:35:23;97577.00;;;11.82;100.00
21817;BME280;13247;47.504;7.382;2023-04-19T08:38:09;97565.25;;;12.19;100.00
21817;BME280;13247;47.504;7.382;2023-04-19T08:40:54;97568.00;;;12.16;100.00
21817;BME280;13247;47.504;7.382;2023-04-19T08:43:40;97569.13;;;12.33;100.00
21817;BME280;13247;47.504;7.382;2023-04-19T08:46:27;97564.69;;;12.35;100.00
21817;BME280;13247;47.504;7.382;2023-04-19T08:49:12;97567.16;;;12.65;100.00
21817;BME280;13247;47.504;7.382;2023-04-19T08:51:58;97568.50;;;12.51;100.00
21817;BME280;13247;47.504;7.382;2023-04-19T08:54:45;97562.00;;;12.85;100.00
21817;BME280;13247;47.504;7.382;2023-04-19T08:57:31;97557.53;;;12.87;100.00
21817;BME280;13247;47.504;7.382;2023-04-19T09:00:17;97556.97;;;13.02;100.00
21817;BME280;13247;47.504;7.382;2023-04-19T09:03:01;97550.03;;;13.01;100.00
21817;BME280;13247;47.504;7.382;2023-04-19T09:05:46;97547.41;;;13.46;100.00
21817;BME280;13247;47.504;7.382;2023-04-19T09:08:30;97546.28;;;13.29;100.00
21817;BME280;13247;47.504;7.382;2023-04-19T09:11:16;97537.44;;;13.54;100.00
21817;BME280;13247;47.504;7.382;2023-04-19T09:14:11;97543.56;;;13.32;100.00
21817;BME280;13247;47.504;7.382;2023-04-19T09:17:16;97536.38;;;13.79;100.00
21817;BME280;13247;47.504;7.382;2023-04-19T09:20:01;97537.63;;;13.49;100.00
21817;BME280;13247;47.504;7.382;2023-04-19T09:23:05;97536.78;;;13.70;100.00
21817;BME280;13247;47.504;7.382;2023-04-19T09:25:59;97534.78;;;13.97;100.00
21817;BME280;13247;47.504;7.382;2023-04-19T09:28:58;97526.59;;;13.61;100.00
21817;BME280;13247;47.504;7.382;2023-04-19T09:31:57;97533.50;;;13.85;100.00
21817;BME280;13247;47.504;7.382;2023-04-19T09:34:54;97533.44;;;13.87;100.00
21817;BME280;13247;47.504;7.382;2023-04-19T09:37:39;97525.00;;;13.99;100.00
21817;BME280;13247;47.504;7.382;2023-04-19T09:40:25;97524.78;;;13.83;100.00
21817;BME280;13247;47.504;7.382;2023-04-19T09:43:11;97517.56;;;13.67;100.00
21817;BME280;13247;47.504;7.382;2023-04-19T09:45:56;97525.81;;;14.01;100.00
21817;BME280;13247;47.504;7.382;2023-04-19T09:48:40;97524.00;;;14.23;100.00
21817;BME280;13247;47.504;7.382;2023-04-19T09:51:39;97514.19;;;14.05;100.00
21817;BME280;13247;47.504;7.382;2023-04-19T09:54:25;97514.41;;;14.00;100.00
21817;BME280;13247;47.504;7.382;2023-04-19T09:57:16;97514.00;;;14.31;100.00
21817;BME280;13247;47.504;7.382;2023-04-19T10:00:01;97520.66;;;14.40;100.00
21817;BME280;13247;47.504;7.382;2023-04-19T10:02:56;97510.34;;;13.92;100.00
21817;BME280;13247;47.504;7.382;2023-04-19T10:05:42;97510.69;;;13.84;100.00
21817;BME280;13247;47.504;7.382;2023-04-19T10:08:27;97501.88;;;14.05;100.00
21817;BME280;13247;47.504;7.382;2023-04-19T10:11:12;97506.47;;;14.00;100.00
21817;BME280;13247;47.504;7.382;2023-04-19T10:13:59;97509.38;;;13.94;100.00
21817;BME280;13247;47.504;7.382;2023-04-19T10:16:45;97499.19;;;14.07;100.00
21817;BME280;13247;47.504;7.382;2023-04-19T10:19:31;97493.53;;;14.36;97.71
21817;BME280;13247;47.504;7.382;2023-04-19T10:22:18;97500.03;;;14.07;100.00
21817;BME280;13247;47.504;7.382;2023-04-19T10:25:11;97503.28;;;14.14;100.00
21817;BME280;13247;47.504;7.382;2023-04-19T10:27:57;97499.13;;;14.08;100.00
21817;BME280;13247;47.504;7.382;2023-04-19T10:30:59;97495.69;;;14.06;100.00
21817;BME280;13247;47.504;7.382;2023-04-19T10:33:47;97496.59;;;14.26;100.00
21817;BME280;13247;47.504;7.382;2023-04-19T10:36:32;97491.00;;;14.53;100.00
21817;BME280;13247;47.504;7.382;2023-04-19T10:39:41;97483.91;;;14.35;99.18
21817;BME280;13247;47.504;7.382;2023-04-19T10:49:08;97482.06;;;14.17;100.00
21817;BME280;13247;47.504;7.382;2023-04-19T10:51:55;97485.22;;;14.25;100.00
21817;BME280;13247;47.504;7.382;2023-04-19T10:54:41;97479.09;;;13.63;100.00
21817;BME280;13247;47.504;7.382;2023-04-19T10:57:25;97478.72;;;13.72;100.00
21817;BME280;13247;47.504;7.382;2023-04-19T11:00:37;97482.16;;;13.94;100.00
21817;BME280;13247;47.504;7.382;2023-04-19T11:03:51;97479.22;;;14.01;100.00
21817;BME280;13247;47.504;7.382;2023-04-19T11:06:37;97475.53;;;13.64;100.00
21817;BME280;13247;47.504;7.382;2023-04-19T11:09:30;97476.84;;;13.95;100.00
21817;BME280;13247;47.504;7.382;2023-04-19T11:12:16;97470.44;;;14.01;100.00
21817;BME280;13247;47.504;7.382;2023-04-19T11:15:01;97462.94;;;14.12;100.00
21817;BME280;13247;47.504;7.382;2023-04-19T11:17:52;97457.25;;;14.21;99.72
21817;BME280;13247;47.504;7.382;2023-04-19T11:20:36;97451.50;;;14.70;96.26
21817;BME280;13247;47.504;7.382;2023-04-19T11:23:21;97449.81;;;14.51;100.00
21817;BME280;13247;47.504;7.382;2023-04-19T11:26:09;97450.00;;;14.06;100.00
21817;BME280;13247;47.504;7.382;2023-04-19T11:28:55;97452.44;;;14.10;100.00
21817;BME280;13247;47.504;7.382;2023-04-19T11:31:42;97441.03;;;14.30;100.00
21817;BME280;13247;47.504;7.382;2023-04-19T11:34:27;97447.03;;;14.13;100.00
21817;BME280;13247;47.504;7.382;2023-04-19T11:37:12;97433.63;;;14.38;99.22
21817;BME280;13247;47.504;7.382;2023-04-19T11:39:56;97431.53;;;14.46;99.71
21817;BME280;13247;47.504;7.382;2023-04-19T11:42:41;97444.06;;;13.81;100.00
21817;BME280;13247;47.504;7.382;2023-04-19T11:45:28;97433.78;;;13.95;100.00
21817;BME280;13247;47.504;7.382;2023-04-19T11:48:14;97428.25;;;14.01;100.00
21817;BME280;13247;47.504;7.382;2023-04-19T11:50:59;97428.72;;;14.10;100.00
21817;BME280;13247;47.504;7.382;2023-04-19T11:53:45;97424.16;;;14.14;100.00
21817;BME280;13247;47.504;7.382;2023-04-19T11:56:29;97413.47;;;14.56;100.00
21817;BME280;13247;47.504;7.382;2023-04-19T11:59:14;97420.00;;;14.67;100.00
21817;BME280;13247;47.504;7.382;2023-04-19T12:02:09;97424.34;;;14.09;100.00
21817;BME280;13247;47.504;7.382;2023-04-19T12:04:54;97428.41;;;13.56;98.78
21817;BME280;13247;47.504;7.382;2023-04-19T12:10:55;97414.66;;;13.90;100.00
21817;BME280;13247;47.504;7.382;2023-04-19T12:13:41;97415.41;;;13.93;99.41
21817;BME280;13247;47.504;7.382;2023-04-19T12:16:27;97414.63;;;14.32;99.93
21817;BME280;13247;47.504;7.382;2023-04-19T12:19:15;97416.50;;;14.08;96.19
21817;BME280;13247;47.504;7.382;2023-04-19T12:22:29;97410.19;;;14.12;99.89
21817;BME280;13247;47.504;7.382;2023-04-19T12:25:15;97407.88;;;13.84;100.00
21817;BME280;13247;47.504;7.382;2023-04-19T12:28:01;97414.41;;;13.56;96.21
21817;BME280;13247;47.504;7.382;2023-04-19T12:30:47;97403.28;;;13.89;100.00
21817;BME280;13247;47.504;7.382;2023-04-19T12:33:31;97395.81;;;14.19;100.00
21817;BME280;13247;47.504;7.382;2023-04-19T12:36:16;97400.16;;;14.40;99.97
21817;BME280;13247;47.504;7.382;2023-04-19T12:39:00;97406.75;;;13.90;97.80
21817;BME280;13247;47.504;7.382;2023-04-19T12:41:45;97409.50;;;14.07;91.52
21817;BME280;13247;47.504;7.382;2023-04-19T12:44:32;97400.00;;;14.43;92.12
21817;BME280;13247;47.504;7.382;2023-04-19T12:47:17;97393.16;;;14.76;89.66
21817;BME280;13247;47.504;7.382;2023-04-19T12:50:02;97397.31;;;15.18;88.28
21817;BME280;13247;47.504;7.382;2023-04-19T12:52:47;97390.31;;;15.35;87.89
21817;BME280;13247;47.504;7.382;2023-04-19T12:55:32;97384.13;;;15.18;87.17
21817;BME280;13247;47.504;7.382;2023-04-19T12:58:16;97392.44;;;14.54;86.29
21817;BME280;13247;47.504;7.382;2023-04-19T13:01:01;97375.91;;;14.69;91.13
21817;BME280;13247;47.504;7.382;2023-04-19T13:03:46;97374.59;;;14.59;88.86
21817;BME280;13247;47.504;7.382;2023-04-19T13:06:31;97368.66;;;14.91;82.12
21817;BME280;13247;47.504;7.382;2023-04-19T13:09:16;97363.88;;;15.00;87.86
21817;BME280;13247;47.504;7.382;2023-04-19T13:12:01;97362.00;;;15.02;86.89
21817;BME280;13247;47.504;7.382;2023-04-19T13:14:46;97357.75;;;14.99;81.42
21817;BME280;13247;47.504;7.382;2023-04-19T13:17:35;97347.66;;;15.43;80.30
21817;BME280;13247;47.504;7.382;2023-04-19T13:20:21;97353.72;;;15.09;84.92
21817;BME280;13247;47.504;7.382;2023-04-19T13:23:05;97345.16;;;15.57;80.11
21817;BME280;13247;47.504;7.382;2023-04-19T13:25:50;97353.31;;;15.00;81.28
21817;BME280;13247;47.504;7.382;2023-04-19T13:28:35;97340.00;;;14.84;85.40
21817;BME280;13247;47.504;7.382;2023-04-19T13:31:19;97336.47;;;15.02;84.68
21817;BME280;13247;47.504;7.382;2023-04-19T13:34:04;97339.31;;;14.43;85.99
21817;BME280;13247;47.504;7.382;2023-04-19T13:36:51;97333.22;;;14.23;90.92
21817;BME280;13247;47.504;7.382;2023-04-19T13:39:36;97323.53;;;14.60;90.06
21817;BME280;13247;47.504;7.382;2023-04-19T13:42:21;97324.81;;;14.70;89.75
21817;BME280;13247;47.504;7.382;2023-04-19T13:45:07;97321.44;;;14.85;89.28
21817;BME280;13247;47.504;7.382;2023-04-19T13:47:53;97316.28;;;14.65;85.93
21817;BME280;13247;47.504;7.382;2023-04-19T13:50:37;97315.97;;;14.71;89.66
21817;BME280;13247;47.504;7.382;2023-04-19T13:53:24;97315.47;;;14.82;79.46
21817;BME280;13247;47.504;7.382;2023-04-19T13:56:09;97307.97;;;15.26;80.30
21817;BME280;13247;47.504;7.382;2023-04-19T13:58:54;97299.66;;;15.33;80.36
21817;BME280;13247;47.504;7.382;2023-04-19T14:01:39;97292.53;;;15.35;80.51
21817;BME280;13247;47.504;7.382;2023-04-19T14:04:24;97289.25;;;15.82;74.89
21817;BME280;13247;47.504;7.382;2023-04-19T14:07:09;97284.28;;;16.39;67.42
21817;BME280;13247;47.504;7.382;2023-04-19T14:09:54;97279.63;;;16.91;66.37
21817;BME280;13247;47.504;7.382;2023-04-19T14:12:39;97276.69;;;16.96;60.53
21817;BME280;13247;47.504;7.382;2023-04-19T14:15:24;97278.81;;;15.46;78.46
21817;BME280;13247;47.504;7.382;2023-04-19T14:18:09;97276.38;;;15.24;81.16
21817;BME280;13247;47.504;7.382;2023-04-19T14:20:54;97274.38;;;14.93;85.20
21817;BME280;13247;47.504;7.382;2023-04-19T14:23:39;97273.28;;;14.80;85.05
21817;BME280;13247;47.504;7.382;2023-04-19T14:26:23;97269.47;;;14.69;92.19
21817;BME280;13247;47.504;7.382;2023-04-19T14:29:08;97275.78;;;14.29;98.20
21817;BME280;13247;47.504;7.382;2023-04-19T14:31:52;97268.75;;;14.28;100.00
21817;BME280;13247;47.504;7.382;2023-04-19T14:34:37;97274.44;;;14.00;100.00
21817;BME280;13247;47.504;7.382;2023-04-19T14:37:23;97266.41;;;14.22;100.00
21817;BME280;13247;47.504;7.382;2023-04-19T14:40:08;97261.03;;;13.68;100.00
21817;BME280;13247;47.504;7.382;2023-04-19T14:42:54;97262.59;;;13.72;100.00
21817;BME280;13247;47.504;7.382;2023-04-19T14:45:38;97263.50;;;13.71;100.00